sensor_id;sensor_type;location;lat;lon;timestamp;pressure;altitude;pressure_sealevel;temperature;humidity
48800;BME280;34611;47.964;7.982;2023-07-22T00:06:58;96822.56;;;15.37;63.41
48800;BME280;34611;47.964;7.982;2023-07-22T00:13:58;96822.13;;;15.42;63.17
48800;BME280;34611;47.964;7.982;2023-07-22T00:20:59;96824.06;;;15.31;63.17
48800;BME280;34611;47.964;7.982;2023-07-22T00:27:59;96817.50;;;15.27;63.15
48800;BME280;34611;47.964;7.982;2023-07-22T00:34:59;96813.72;;;15.30;62.87
48800;BME280;34611;47.964;7.982;2023-07-22T00:41:59;96812.25;;;15.27;62.26
48800;BME280;34611;47.964;7.982;2023-07-22T00:49:00;96805.19;;;15.20;62.74
48800;BME280;34611;47.964;7.982;2023-07-22T00:56:00;96802.88;;;15.08;63.31
48800;BME280;34611;47.964;7.982;2023-07-22T01:03:01;96801.09;;;15.17;62.84
48800;BME280;34611;47.964;7.982;2023-07-22T01:10:01;96797.94;;;15.05;62.74
48800;BME280;34611;47.964;7.982;2023-07-22T01:17:01;96794.25;;;15.32;61.71
48800;BME280;34611;47.964;7.982;2023-07-22T01:24:02;96801.97;;;15.34;61.56
48800;BME280;34611;47.964;7.982;2023-07-22T01:31:02;96793.44;;;15.32;61.35
48800;BME280;34611;47.964;7.982;2023-07-22T01:38:02;96784.56;;;15.25;61.32
48800;BME280;34611;47.964;7.982;2023-07-22T01:45:03;96783.75;;;15.24;61.18
48800;BME280;34611;47.964;7.982;2023-07-22T01:52:06;96784.69;;;15.07;61.71
48800;BME280;34611;47.964;7.982;2023-07-22T01:59:06;96799.13;;;15.19;61.22
48800;BME280;34611;47.964;7.982;2023-07-22T02:06:07;96797.41;;;15.02;61.65
48800;BME280;34611;47.964;7.982;2023-07-22T02:13:07;96789.88;;;14.90;61.96
48800;BME280;34611;47.964;7.982;2023-07-22T02:20:07;96788.72;;;14.93;61.89
48800;BME280;34611;47.964;7.982;2023-07-22T02:27:09;96799.16;;;14.85;61.88
48800;BME280;34611;47.964;7.982;2023-07-22T02:34:09;96793.69;;;15.04;61.05
48800;BME280;34611;47.964;7.982;2023-07-22T02:41:10;96795.97;;;15.07;60.60
48800;BME280;34611;47.964;7.982;2023-07-22T02:48:10;96791.31;;;15.27;59.78
48800;BME280;34611;47.964;7.982;2023-07-22T02:55:11;96784.25;;;15.20;59.62
48800;BME280;34611;47.964;7.982;2023-07-22T03:02:12;96788.28;;;15.06;59.67
48800;BME280;34611;47.964;7.982;2023-07-22T03:09:14;96792.84;;;15.04;59.79
48800;BME280;34611;47.964;7.982;2023-07-22T03:16:14;96792.00;;;14.95;59.89
48800;BME280;34611;47.964;7.982;2023-07-22T03:23:15;96789.75;;;15.00;59.58
48800;BME280;34611;47.964;7.982;2023-07-22T03:30:16;96787.25;;;14.90;59.56
48800;BME280;34611;47.964;7.982;2023-07-22T03:37:16;96780.97;;;14.83;59.81
48800;BME280;34611;47.964;7.982;2023-07-22T03:44:16;96782.69;;;14.92;59.23
48800;BME280;34611;47.964;7.982;2023-07-22T03:51:17;96785.59;;;14.89;59.36
48800;BME280;34611;47.964;7.982;2023-07-22T03:58:17;96786.50;;;14.72;59.92
48800;BME280;34611;47.964;7.982;2023-07-22T04:05:17;96786.94;;;14.59;60.23
48800;BME280;34611;47.964;7.982;2023-07-22T04:12:18;96786.59;;;14.62;60.12
48800;BME280;34611;47.964;7.982;2023-07-22T04:19:18;96780.56;;;14.62;60.07
48800;BME280;34611;47.964;7.982;2023-07-22T04:26:18;96782.41;;;14.69;59.63
48800;BME280;34611;47.964;7.982;2023-07-22T04:33:18;96772.25;;;14.66;59.88
48800;BME280;34611;47.964;7.982;2023-07-22T04:40:19;96780.72;;;14.94;58.92
48800;BME280;34611;47.964;7.982;2023-07-22T04:47:19;96785.88;;;14.78;59.32
48800;BME280;34611;47.964;7.982;2023-07-22T04:54:20;96788.97;;;14.73;59.62
48800;BME280;34611;47.964;7.982;2023-07-22T05:01:20;96799.72;;;14.70;59.81
48800;BME280;34611;47.964;7.982;2023-07-22T05:08:20;96800.72;;;14.69;60.71
48800;BME280;34611;47.964;7.982;2023-07-22T05:15:20;96810.38;;;14.77;60.34
48800;BME280;34611;47.964;7.982;2023-07-22T05:22:21;96812.72;;;14.80;60.61
48800;BME280;34611;47.964;7.982;2023-07-22T05:29:21;96809.81;;;14.91;60.42
48800;BME280;34611;47.964;7.982;2023-07-22T05:36:21;96813.44;;;15.41;59.31
48800;BME280;34611;47.964;7.982;2023-07-22T05:43:21;96809.53;;;15.53;59.43
48800;BME280;34611;47.964;7.982;2023-07-22T05:50:22;96814.78;;;15.62;59.30
48800;BME280;34611;47.964;7.982;2023-07-22T05:57:22;96813.34;;;15.67;59.35
48800;BME280;34611;47.964;7.982;2023-07-22T06:04:22;96818.78;;;15.74;59.47
48800;BME280;34611;47.964;7.982;2023-07-22T06:11:23;96818.28;;;15.78;59.47
48800;BME280;34611;47.964;7.982;2023-07-22T06:18:23;96814.34;;;15.83;59.55
48800;BME280;34611;47.964;7.982;2023-07-22T06:25:23;96817.63;;;15.85;59.61
48800;BME280;34611;47.964;7.982;2023-07-22T06:32:24;96823.22;;;15.90;59.48
48800;BME280;34611;47.964;7.982;2023-07-22T06:39:25;96827.47;;;15.91;59.67
48800;BME280;34611;47.964;7.982;2023-07-22T06:46:25;96821.72;;;15.95;59.63
48800;BME280;34611;47.964;7.982;2023-07-22T06:53:26;96823.22;;;15.98;59.59
48800;BME280;34611;47.964;7.982;2023-07-22T07:00:26;96814.22;;;16.01;59.66
48800;BME280;34611;47.964;7.982;2023-07-22T07:07:26;96817.50;;;16.03;59.63
48800;BME280;34611;47.964;7.982;2023-07-22T07:14:26;96813.72;;;16.05;59.77
48800;BME280;34611;47.964;7.982;2023-07-22T07:21:27;96825.66;;;16.08;59.62
48800;BME280;34611;47.964;7.982;2023-07-22T07:28:28;96817.66;;;16.09;59.79
48800;BME280;34611;47.964;7.982;2023-07-22T07:35:28;96826.16;;;16.11;59.85
48800;BME280;34611;47.964;7.982;2023-07-22T07:42:28;96829.44;;;16.13;59.83
48800;BME280;34611;47.964;7.982;2023-07-22T07:49:28;96830.09;;;16.15;59.78
48800;BME280;34611;47.964;7.982;2023-07-22T07:56:29;96819.47;;;16.17;59.83
48800;BME280;34611;47.964;7.982;2023-07-22T08:03:29;96825.31;;;16.44;59.39
48800;BME280;34611;47.964;7.982;2023-07-22T08:10:30;96826.47;;;16.25;60.13
48800;BME280;34611;47.964;7.982;2023-07-22T08:17:32;96834.19;;;16.26;60.13
48800;BME280;34611;47.964;7.982;2023-07-22T08:24:33;96818.47;;;16.26;60.16
48800;BME280;34611;47.964;7.982;2023-07-22T08:31:33;96838.28;;;16.29;60.14
48800;BME280;34611;47.964;7.982;2023-07-22T08:38:34;96830.91;;;16.41;59.89
48800;BME280;34611;47.964;7.982;2023-07-22T08:45:34;96830.91;;;16.32;60.26
48800;BME280;34611;47.964;7.982;2023-07-22T08:52:37;96826.47;;;16.33;60.17
48800;BME280;34611;47.964;7.982;2023-07-22T08:59:37;96831.56;;;16.34;60.24
48800;BME280;34611;47.964;7.982;2023-07-22T09:06:38;96848.13;;;16.35;60.17
48800;BME280;34611;47.964;7.982;2023-07-22T09:13:38;96843.53;;;16.37;60.30
48800;BME280;34611;47.964;7.982;2023-07-22T09:20:40;96846.81;;;16.47;60.04
48800;BME280;34611;47.964;7.982;2023-07-22T09:27:40;96843.53;;;16.45;60.27
48800;BME280;34611;47.964;7.982;2023-07-22T09:35:14;96845.50;;;16.43;60.18
48800;BME280;34611;47.964;7.982;2023-07-22T09:42:09;96845.50;;;16.43;60.34
48800;BME280;34611;47.964;7.982;2023-07-22T09:49:09;96848.78;;;16.45;60.31
48800;BME280;34611;47.964;7.982;2023-07-22T09:56:10;96834.69;;;16.46;60.19
48800;BME280;34611;47.964;7.982;2023-07-22T10:03:10;96827.28;;;16.50;60.32
48800;BME280;34611;47.964;7.982;2023-07-22T10:10:11;96823.03;;;16.49;60.22
48800;BME280;34611;47.964;7.982;2023-07-22T10:17:12;96820.88;;;16.61;60.00
48800;BME280;34611;47.964;7.982;2023-07-22T10:24:14;96821.88;;;16.51;60.22
48800;BME280;34611;47.964;7.982;2023-07-22T10:31:14;96821.88;;;16.51;60.31
48800;BME280;34611;47.964;7.982;2023-07-22T10:38:18;96806.13;;;16.51;60.34
48800;BME280;34611;47.964;7.982;2023-07-22T10:45:28;96810.41;;;16.52;60.29
48800;BME280;34611;47.964;7.982;2023-07-22T10:52:43;96797.28;;;16.52;60.30
48800;BME280;34611;47.964;7.982;2023-07-22T10:59:49;96793.66;;;16.53;60.34
48800;BME280;34611;47.964;7.982;2023-07-22T11:13:50;96794.31;;;16.55;60.27
48800;BME280;34611;47.964;7.982;2023-07-22T11:20:52;96777.75;;;16.55;60.30
48800;BME280;34611;47.964;7.982;2023-07-22T11:27:53;96765.44;;;16.55;60.30
48800;BME280;34611;47.964;7.982;2023-07-22T11:34:53;96774.97;;;16.56;60.29
48800;BME280;34611;47.964;7.982;2023-07-22T11:41:53;96761.84;;;16.56;60.42
48800;BME280;34611;47.964;7.982;2023-07-22T11:48:54;96753.78;;;16.58;60.33
48800;BME280;34611;47.964;7.982;2023-07-22T11:55:55;96758.88;;;16.59;60.33
48800;BME280;34611;47.964;7.982;2023-07-22T12:02:56;96757.06;;;16.60;60.42
48800;BME280;34611;47.964;7.982;2023-07-22T12:09:58;96751.00;;;16.59;60.35
48800;BME280;34611;47.964;7.982;2023-07-22T12:16:58;96739.53;;;16.61;60.34
48800;BME280;34611;47.964;7.982;2023-07-22T12:23:59;96747.41;;;16.61;60.29
48800;BME280;34611;47.964;7.982;2023-07-22T12:31:00;96741.16;;;16.62;60.46
48800;BME280;34611;47.964;7.982;2023-07-22T12:38:00;96743.78;;;16.62;60.36
48800;BME280;34611;47.964;7.982;2023-07-22T12:45:00;96734.09;;;16.62;60.50
48800;BME280;34611;47.964;7.982;2023-07-22T12:52:01;96735.75;;;16.63;60.57
48800;BME280;34611;47.964;7.982;2023-07-22T12:59:04;96716.38;;;16.64;60.44
48800;BME280;34611;47.964;7.982;2023-07-22T13:06:04;96711.13;;;16.64;60.37
48800;BME280;34611;47.964;7.982;2023-07-22T13:13:05;96708.50;;;16.64;60.37
48800;BME280;34611;47.964;7.982;2023-07-22T13:20:06;96706.72;;;16.65;60.46
48800;BME280;34611;47.964;7.982;2023-07-22T13:27:09;96708.34;;;16.66;60.44
48800;BME280;34611;47.964;7.982;2023-07-22T13:34:09;96702.09;;;16.67;60.46
48800;BME280;34611;47.964;7.982;2023-07-22T13:41:09;96710.97;;;16.66;60.47
48800;BME280;34611;47.964;7.982;2023-07-22T13:48:09;96705.19;;;16.70;60.45
48800;BME280;34611;47.964;7.982;2023-07-22T13:55:11;96699.13;;;16.70;60.48
48800;BME280;34611;47.964;7.982;2023-07-22T14:02:12;96690.44;;;16.69;60.57
48800;BME280;34611;47.964;7.982;2023-07-22T14:09:12;96687.81;;;16.69;60.52
48800;BME280;34611;47.964;7.982;2023-07-22T14:16:12;96688.63;;;16.70;60.48
48800;BME280;34611;47.964;7.982;2023-07-22T14:23:12;96679.78;;;16.71;60.56
48800;BME280;34611;47.964;7.982;2023-07-22T14:30:13;96675.34;;;16.71;60.53
48800;BME280;34611;47.964;7.982;2023-07-22T14:37:13;96685.03;;;16.71;60.47
48800;BME280;34611;47.964;7.982;2023-07-22T14:44:14;96673.53;;;16.72;60.51
48800;BME280;34611;47.964;7.982;2023-07-22T14:51:14;96672.56;;;16.73;60.56
48800;BME280;34611;47.964;7.982;2023-07-22T14:58:14;96681.25;;;16.73;60.53
48800;BME280;34611;47.964;7.982;2023-07-22T15:05:15;96673.38;;;16.73;60.65
48800;BME280;34611;47.964;7.982;2023-07-22T15:12:15;96669.94;;;16.73;60.56
48800;BME280;34611;47.964;7.982;2023-07-22T15:19:15;96660.03;;;16.75;60.60
48800;BME280;34611;47.964;7.982;2023-07-22T15:26:16;96658.25;;;16.75;60.61
48800;BME280;34611;47.964;7.982;2023-07-22T15:33:16;96653.00;;;16.75;60.56
48800;BME280;34611;47.964;7.982;2023-07-22T15:40:16;96641.50;;;16.76;60.57
48800;BME280;34611;47.964;7.982;2023-07-22T15:47:18;96644.94;;;16.77;60.70
48800;BME280;34611;47.964;7.982;2023-07-22T15:54:18;96644.94;;;16.77;60.63
48800;BME280;34611;47.964;7.982;2023-07-22T16:01:19;96648.41;;;16.77;60.66
48800;BME280;34611;47.964;7.982;2023-07-22T16:08:20;96645.78;;;16.77;60.55
48800;BME280;34611;47.964;7.982;2023-07-22T16:15:20;96631.66;;;16.78;60.68
48800;BME280;34611;47.964;7.982;2023-07-22T16:22:20;96648.22;;;16.79;60.71
48800;BME280;34611;47.964;7.982;2023-07-22T16:29:21;96646.25;;;16.81;60.89
48800;BME280;34611;47.964;7.982;2023-07-22T16:36:21;96647.22;;;16.80;60.86
48800;BME280;34611;47.964;7.982;2023-07-22T16:43:22;96634.94;;;16.81;60.76
48800;BME280;34611;47.964;7.982;2023-07-22T16:50:22;96647.09;;;16.82;60.76
48800;BME280;34611;47.964;7.982;2023-07-22T16:57:22;96644.47;;;16.82;60.83
48800;BME280;34611;47.964;7.982;2023-07-22T17:04:23;96640.03;;;16.82;60.86
48800;BME280;34611;47.964;7.982;2023-07-22T17:11:23;96651.34;;;16.83;60.91
48800;BME280;34611;47.964;7.982;2023-07-22T17:18:23;96651.34;;;16.83;60.82
48800;BME280;34611;47.964;7.982;2023-07-22T17:25:23;96640.84;;;16.83;60.92
48800;BME280;34611;47.964;7.982;2023-07-22T17:32:24;96648.56;;;16.84;60.84
48800;BME280;34611;47.964;7.982;2023-07-22T17:39:24;96645.94;;;16.84;60.97
48800;BME280;34611;47.964;7.982;2023-07-22T17:46:24;96643.31;;;16.84;60.95
48800;BME280;34611;47.964;7.982;2023-07-22T17:53:25;96634.44;;;16.85;60.87
48800;BME280;34611;47.964;7.982;2023-07-22T18:00:25;96638.06;;;16.84;61.01
48800;BME280;34611;47.964;7.982;2023-07-22T18:07:25;96639.69;;;16.85;61.01
48800;BME280;34611;47.964;7.982;2023-07-22T18:14:28;96629.19;;;16.85;60.85
48800;BME280;34611;47.964;7.982;2023-07-22T18:21:28;96630.00;;;16.86;61.02
48800;BME280;34611;47.964;7.982;2023-07-22T18:28:29;96637.91;;;16.86;61.01
48800;BME280;34611;47.964;7.982;2023-07-22T18:35:29;96641.31;;;16.86;60.94
48800;BME280;34611;47.964;7.982;2023-07-22T18:42:29;96636.06;;;16.86;61.02
48800;BME280;34611;47.964;7.982;2023-07-22T18:49:29;96637.91;;;16.86;61.04
48800;BME280;34611;47.964;7.982;2023-07-22T18:56:30;96646.41;;;16.88;61.16
48800;BME280;34611;47.964;7.982;2023-07-22T19:03:30;96652.63;;;16.87;61.04
48800;BME280;34611;47.964;7.982;2023-07-22T19:10:31;96653.44;;;16.87;60.98
48800;BME280;34611;47.964;7.982;2023-07-22T19:17:31;96666.41;;;16.89;61.06
48800;BME280;34611;47.964;7.982;2023-07-22T19:24:31;96661.16;;;16.89;61.08
48800;BME280;34611;47.964;7.982;2023-07-22T19:31:32;96669.03;;;16.89;61.02
48800;BME280;34611;47.964;7.982;2023-07-22T19:38:33;96667.22;;;16.89;61.05
48800;BME280;34611;47.964;7.982;2023-07-22T19:45:33;96672.47;;;16.89;61.14
48800;BME280;34611;47.964;7.982;2023-07-22T19:52:33;96684.63;;;16.90;61.09
48800;BME280;34611;47.964;7.982;2023-07-22T19:59:34;96681.19;;;16.90;61.04
48800;BME280;34611;47.964;7.982;2023-07-22T20:06:35;96682.81;;;16.91;61.04
48800;BME280;34611;47.964;7.982;2023-07-22T20:13:35;96686.25;;;16.91;61.13
48800;BME280;34611;47.964;7.982;2023-07-22T20:20:35;96687.25;;;16.90;61.15
48800;BME280;34611;47.964;7.982;2023-07-22T20:27:36;96687.09;;;16.92;61.11
48800;BME280;34611;47.964;7.982;2023-07-22T20:34:37;96690.53;;;16.92;61.14
48800;BME280;34611;47.964;7.982;2023-07-22T20:41:37;96687.09;;;16.92;61.13
48800;BME280;34611;47.964;7.982;2023-07-22T20:48:38;96687.91;;;16.92;61.15
48800;BME280;34611;47.964;7.982;2023-07-22T20:55:38;96684.47;;;16.92;61.12
48800;BME280;34611;47.964;7.982;2023-07-22T21:02:38;96687.91;;;16.92;61.14
48800;BME280;34611;47.964;7.982;2023-07-22T21:09:39;96683.47;;;16.93;61.14
48800;BME280;34611;47.964;7.982;2023-07-22T21:16:40;96691.16;;;16.94;61.10
48800;BME280;34611;47.964;7.982;2023-07-22T21:23:41;96683.47;;;16.93;61.11
48800;BME280;34611;47.964;7.982;2023-07-22T21:30:41;96684.25;;;16.93;61.06
48800;BME280;34611;47.964;7.982;2023-07-22T21:37:41;96687.72;;;16.94;61.14
48800;BME280;34611;47.964;7.982;2023-07-22T21:44:44;96691.16;;;16.94;61.14
48800;BME280;34611;47.964;7.982;2023-07-22T21:51:44;96679.84;;;16.94;61.33
48800;BME280;34611;47.964;7.982;2023-07-22T21:58:44;96683.28;;;16.94;61.20
48800;BME280;34611;47.964;7.982;2023-07-22T22:05:45;96683.28;;;16.94;61.16
48800;BME280;34611;47.964;7.982;2023-07-22T22:12:45;96687.53;;;16.95;61.18
48800;BME280;34611;47.964;7.982;2023-07-22T22:19:45;96690.16;;;16.95;61.22
48800;BME280;34611;47.964;7.982;2023-07-22T22:26:46;96675.41;;;16.94;61.24
48800;BME280;34611;47.964;7.982;2023-07-22T22:33:46;96682.28;;;16.95;61.12
48800;BME280;34611;47.964;7.982;2023-07-22T22:40:46;96678.84;;;16.95;61.17
48800;BME280;34611;47.964;7.982;2023-07-22T22:47:47;96673.59;;;16.95;61.17
48800;BME280;34611;47.964;7.982;2023-07-22T22:54:47;96686.56;;;16.96;61.21
48800;BME280;34611;47.964;7.982;2023-07-22T23:01:47;96677.03;;;16.95;61.09
48800;BME280;34611;47.964;7.982;2023-07-22T23:08:48;96673.44;;;16.96;61.19
48800;BME280;34611;47.964;7.982;2023-07-22T23:15:48;96665.59;;;16.88;59.46
48800;BME280;34611;47.964;7.982;2023-07-22T23:22:48;96668.28;;;16.72;59.05
48800;BME280;34611;47.964;7.982;2023-07-22T23:29:48;96662.53;;;16.68;59.34
48800;BME280;34611;47.964;7.982;2023-07-22T23:36:49;96652.72;;;16.62;59.05
48800;BME280;34611;47.964;7.982;2023-07-22T23:43:49;96649.69;;;16.50;59.70
48800;BME280;34611;47.964;7.982;2023-07-22T23:50:49;96652.63;;;16.47;59.47
48800;BME280;34611;47.964;7.982;2023-07-22T23:57:50;96645.53;;;16.56;58.99
